Worleytown, Pennsylvania
Current Conditions -  °F | °C
As of 9:53 PM on Friday 28 Nov 2014 (Local Time) from KHGR Reporting Station
Few Clouds Few Clouds  
Wind Chill: 21°   Ceiling: Unl
Heat Index: 26°   Visibility: 10mi
Dew Point: 16°   Wind: 5mph
Humidity: 66%   Direction: 110°ESE
Pressure: 30.26"   Gusts: NA
Location:  39.7874°N, 77.754°W
Report Text: KHGR 290253Z AUTO 11004KT 10SM FEW120 M03/M09 A3026 RMK AO2 SLP264 T10331089 58002
Loading
Personal Weather Stations






























Interactive Weather Map New forecast layout! Learn more

10-Day Weather Forecast

Advertisements
Track Severe Weather on mobile